createdAt,value
2022-09-07T00:00:24.101Z,20.14
2022-09-07T00:03:11.571Z,20.29
2022-09-07T00:05:59.177Z,20.28
2022-09-07T00:08:46.449Z,20.20
2022-09-07T00:11:33.710Z,20.07
2022-09-07T00:14:21.418Z,19.86
2022-09-07T00:17:08.669Z,19.79
2022-09-07T00:19:56.161Z,19.79
2022-09-07T00:22:43.461Z,19.84
2022-09-07T00:25:32.171Z,19.85
2022-09-07T00:28:19.521Z,19.92
2022-09-07T00:31:16.374Z,19.69
2022-09-07T00:34:03.702Z,19.67
2022-09-07T00:36:51.033Z,19.77
2022-09-07T00:39:38.614Z,19.86
2022-09-07T00:42:26.151Z,19.84
2022-09-07T00:45:20.989Z,19.81
2022-09-07T00:48:15.044Z,19.82
2022-09-07T00:51:06.885Z,19.87
2022-09-07T00:54:00.477Z,19.94
2022-09-07T00:56:49.832Z,19.88
2022-09-07T00:59:44.929Z,20.01
2022-09-07T01:02:32.476Z,19.91
2022-09-07T01:05:26.618Z,19.87
2022-09-07T01:08:14.193Z,19.93
2022-09-07T01:11:01.593Z,19.93
2022-09-07T01:13:50.701Z,19.89
2022-09-07T01:17:15.705Z,19.88
2022-09-07T01:20:35.327Z,19.85
2022-09-07T01:23:47.510Z,19.79
2022-09-07T01:26:46.978Z,19.80
2022-09-07T01:29:52.525Z,19.80
2022-09-07T01:32:48.111Z,19.66
2022-09-07T01:35:50.429Z,19.68
2022-09-07T01:38:46.541Z,19.71
2022-09-07T01:41:45.965Z,19.64
2022-09-07T01:44:40.061Z,19.69
2022-09-07T01:47:33.891Z,19.72
2022-09-07T01:50:38.137Z,19.73
2022-09-07T01:53:34.767Z,19.77
2022-09-07T01:56:34.985Z,19.63
2022-09-07T01:59:32.544Z,19.72
2022-09-07T02:02:24.829Z,19.73
2022-09-07T02:05:54.094Z,19.68
2022-09-07T02:08:49.300Z,19.72
2022-09-07T02:11:43.598Z,19.70
2022-09-07T02:14:36.769Z,19.64
2022-09-07T02:17:33.883Z,19.62
2022-09-07T02:20:32.517Z,19.61
2022-09-07T02:23:25.197Z,19.59
2022-09-07T02:26:19.710Z,19.54
2022-09-07T02:29:07.792Z,19.45
2022-09-07T02:31:55.077Z,19.38
2022-09-07T02:34:42.424Z,19.42
2022-09-07T02:37:31.176Z,19.43
2022-09-07T02:40:18.637Z,19.46
2022-09-07T02:43:08.811Z,19.48
2022-09-07T02:46:26.700Z,19.48
2022-09-07T02:49:44.495Z,19.42
2022-09-07T02:52:40.612Z,19.44
2022-09-07T02:55:58.769Z,19.42
2022-09-07T02:59:00.868Z,19.36
2022-09-07T03:02:09.836Z,19.32
2022-09-07T03:05:20.658Z,19.28
2022-09-07T03:08:21.893Z,19.35
2022-09-07T03:11:09.293Z,19.28
2022-09-07T03:14:16.117Z,19.27
2022-09-07T03:17:03.449Z,19.27
2022-09-07T03:19:50.684Z,19.23
2022-09-07T03:22:38.097Z,19.11
2022-09-07T03:25:25.380Z,19.03
2022-09-07T03:28:12.674Z,19.08
2022-09-07T03:31:01.977Z,19.11
2022-09-07T03:33:49.339Z,19.00
2022-09-07T03:36:36.985Z,18.99
2022-09-07T03:39:26.472Z,18.95
2022-09-07T03:42:13.607Z,18.97
2022-09-07T03:45:00.789Z,19.02
2022-09-07T03:47:49.128Z,18.92
2022-09-07T03:50:36.482Z,18.82
2022-09-07T03:53:23.765Z,19.05
2022-09-07T03:56:13.921Z,19.02
2022-09-07T03:59:01.327Z,18.95
2022-09-07T04:01:48.638Z,18.88
2022-09-07T04:04:35.930Z,18.88
2022-09-07T04:07:23.217Z,18.89
2022-09-07T04:10:10.537Z,18.84
2022-09-07T04:12:57.802Z,18.78
2022-09-07T04:15:45.473Z,18.79
2022-09-07T04:18:36.620Z,18.85
2022-09-07T04:21:25.266Z,18.72
2022-09-07T04:24:16.549Z,18.67
2022-09-07T04:27:03.985Z,18.69
2022-09-07T04:29:51.265Z,18.62
2022-09-07T04:32:38.550Z,18.65
2022-09-07T04:35:25.832Z,18.70
2022-09-07T04:38:15.008Z,18.70
2022-09-07T04:41:09.371Z,18.77
2022-09-07T04:43:59.523Z,18.69
2022-09-07T04:46:46.805Z,18.62
2022-09-07T04:49:34.113Z,18.53
2022-09-07T04:52:21.477Z,18.55
2022-09-07T04:55:09.433Z,18.60
2022-09-07T04:57:56.680Z,18.63
2022-09-07T05:00:44.025Z,18.68
2022-09-07T05:03:33.582Z,18.63
2022-09-07T05:06:22.495Z,18.68
2022-09-07T05:09:10.434Z,18.63
2022-09-07T05:11:57.717Z,18.74
2022-09-07T05:14:45.034Z,18.71
2022-09-07T05:17:32.306Z,18.76
2022-09-07T05:20:21.054Z,18.72
2022-09-07T05:23:08.796Z,18.69
2022-09-07T05:25:56.068Z,18.72
2022-09-07T05:28:43.605Z,18.71
2022-09-07T05:31:31.580Z,18.83
2022-09-07T05:34:34.254Z,18.68
2022-09-07T05:37:21.565Z,18.78
2022-09-07T05:40:09.601Z,18.86
2022-09-07T05:42:56.898Z,18.91
2022-09-07T05:45:44.195Z,18.90
2022-09-07T05:48:31.779Z,18.95
2022-09-07T05:51:19.414Z,19.01
2022-09-07T05:54:06.842Z,18.99
2022-09-07T05:56:54.138Z,19.10
2022-09-07T05:59:41.402Z,19.26
2022-09-07T06:02:28.754Z,19.26
2022-09-07T06:05:16.253Z,19.20
2022-09-07T06:08:04.308Z,19.01
2022-09-07T06:10:51.744Z,18.99
2022-09-07T06:13:39.999Z,19.01
2022-09-07T06:16:27.336Z,19.06
2022-09-07T06:19:14.755Z,19.12
2022-09-07T06:22:02.010Z,19.13
2022-09-07T06:24:49.253Z,19.25
2022-09-07T06:27:36.525Z,19.31
2022-09-07T06:30:25.208Z,19.39
2022-09-07T06:33:12.519Z,19.46
2022-09-07T06:36:02.255Z,19.52
2022-09-07T06:38:51.070Z,19.53
2022-09-07T06:44:45.568Z,19.69
2022-09-07T06:47:32.830Z,19.80
2022-09-07T06:50:20.113Z,19.95
2022-09-07T06:56:17.261Z,20.09
2022-09-07T06:59:04.547Z,20.13
2022-09-07T07:01:51.808Z,20.14
2022-09-07T07:04:41.188Z,20.10
2022-09-07T07:07:29.479Z,20.16
2022-09-07T07:10:19.739Z,20.16
2022-09-07T07:13:09.561Z,20.29
2022-09-07T07:16:08.517Z,20.38
2022-09-07T07:18:56.372Z,20.47
2022-09-07T07:22:10.407Z,20.37
2022-09-07T07:24:51.267Z,20.37
2022-09-07T07:27:39.565Z,20.34
2022-09-07T07:30:26.946Z,20.51
2022-09-07T07:33:14.333Z,20.61
2022-09-07T07:36:19.408Z,20.72
2022-09-07T07:39:06.754Z,20.88
2022-09-07T07:41:55.493Z,21.09
2022-09-07T07:44:44.937Z,21.25
2022-09-07T07:47:32.242Z,21.48
2022-09-07T07:50:35.090Z,21.43
2022-09-07T07:56:29.600Z,21.60
2022-09-07T07:59:16.823Z,21.41
2022-09-07T08:02:08.557Z,21.48
2022-09-07T08:04:56.000Z,21.42
2022-09-07T08:07:43.246Z,21.43
2022-09-07T08:10:30.464Z,21.39
2022-09-07T08:13:18.260Z,21.33
2022-09-07T08:16:05.856Z,21.24
2022-09-07T08:18:53.610Z,21.24
2022-09-07T08:21:40.817Z,21.30
2022-09-07T08:24:28.040Z,21.17
2022-09-07T08:27:19.680Z,21.24
2022-09-07T08:30:07.716Z,21.28
2022-09-07T08:32:55.021Z,21.28
2022-09-07T08:35:42.366Z,21.30
2022-09-07T08:38:31.582Z,21.41
2022-09-07T08:41:56.090Z,21.54
2022-09-07T08:45:11.553Z,21.78
2022-09-07T08:47:59.045Z,21.84
2022-09-07T08:51:02.667Z,22.00
2022-09-07T08:53:50.106Z,22.06
2022-09-07T08:57:20.653Z,22.10
2022-09-07T09:00:26.966Z,22.18
2022-09-07T09:03:30.003Z,21.95
2022-09-07T09:06:49.774Z,22.02
2022-09-07T09:09:47.812Z,22.03
2022-09-07T09:12:56.292Z,21.94
2022-09-07T09:16:10.163Z,21.88
2022-09-07T09:19:20.537Z,21.93
2022-09-07T09:22:14.426Z,21.91
2022-09-07T09:25:15.681Z,21.89
2022-09-07T09:28:03.129Z,21.91
2022-09-07T09:30:50.493Z,21.97
2022-09-07T09:33:37.867Z,21.96
2022-09-07T09:36:34.152Z,21.94
2022-09-07T09:39:31.998Z,22.00
2022-09-07T09:42:24.163Z,22.01
2022-09-07T09:45:16.870Z,21.98
2022-09-07T09:48:11.306Z,21.92
2022-09-07T09:54:23.297Z,21.95
2022-09-07T09:57:37.382Z,21.99
2022-09-07T10:00:29.874Z,21.87
2022-09-07T10:06:26.037Z,21.91
2022-09-07T10:09:20.025Z,21.90
2022-09-07T10:12:22.494Z,21.93
2022-09-07T10:15:40.428Z,22.24
2022-09-07T10:18:53.907Z,22.43
2022-09-07T10:21:43.294Z,22.60
2022-09-07T10:24:39.062Z,22.64
2022-09-07T10:27:33.079Z,22.64
2022-09-07T10:30:20.288Z,22.60
2022-09-07T10:33:20.432Z,22.56
2022-09-07T10:36:14.608Z,22.62
2022-09-07T10:39:08.264Z,22.74
2022-09-07T10:42:13.429Z,22.78
2022-09-07T10:45:17.134Z,22.99
2022-09-07T10:48:29.242Z,23.08
2022-09-07T10:51:39.742Z,23.12
2022-09-07T10:55:00.298Z,23.16
2022-09-07T10:58:16.962Z,23.30
2022-09-07T11:01:26.399Z,23.47
2022-09-07T11:04:32.397Z,23.61
2022-09-07T11:07:42.792Z,23.75
2022-09-07T11:10:42.983Z,23.96
2022-09-07T11:13:55.501Z,24.23
2022-09-07T11:16:55.494Z,24.36
2022-09-07T11:19:57.803Z,24.36
2022-09-07T11:22:53.375Z,24.28
2022-09-07T11:25:53.703Z,24.26
2022-09-07T11:29:29.141Z,24.03
2022-09-07T11:32:03.145Z,23.74
2022-09-07T11:34:55.304Z,23.57
2022-09-07T11:37:48.015Z,23.47
2022-09-07T11:40:42.049Z,23.42
2022-09-07T11:43:37.853Z,23.46
2022-09-07T11:46:38.779Z,23.45
2022-09-07T11:49:26.153Z,23.59
2022-09-07T11:52:29.157Z,23.64
2022-09-07T11:55:25.478Z,23.75
2022-09-07T11:58:23.713Z,23.95
2022-09-07T12:01:36.831Z,24.17
2022-09-07T12:04:56.536Z,24.14
2022-09-07T12:08:06.053Z,24.26
2022-09-07T12:11:19.077Z,24.38
2022-09-07T12:14:38.813Z,24.41
2022-09-07T12:17:56.704Z,24.45
2022-09-07T12:20:48.516Z,24.56
2022-09-07T12:23:35.758Z,24.72
2022-09-07T12:26:50.001Z,24.93
2022-09-07T12:29:38.027Z,25.06
2022-09-07T12:32:55.845Z,25.24
2022-09-07T12:35:44.597Z,25.29
2022-09-07T12:38:31.837Z,25.18
2022-09-07T12:41:25.478Z,25.09
2022-09-07T12:44:18.677Z,24.96
2022-09-07T12:47:28.354Z,24.93
2022-09-07T12:50:28.435Z,24.98
2022-09-07T12:53:31.537Z,25.07
2022-09-07T12:56:36.948Z,25.11
2022-09-07T12:59:36.229Z,25.15
2022-09-07T13:02:48.984Z,25.25
2022-09-07T13:05:39.083Z,25.31
2022-09-07T13:08:50.880Z,25.27
2022-09-07T13:11:40.059Z,25.23
2022-09-07T13:14:29.364Z,25.24
2022-09-07T13:17:41.476Z,25.27
2022-09-07T13:20:36.150Z,25.13
2022-09-07T13:23:26.628Z,25.16
2022-09-07T13:26:53.665Z,25.13
2022-09-07T13:29:40.800Z,25.09
2022-09-07T13:35:45.205Z,25.11
2022-09-07T13:38:36.481Z,25.31
2022-09-07T13:41:36.941Z,25.51
2022-09-07T13:44:34.312Z,25.50
2022-09-07T13:47:41.328Z,25.59
2022-09-07T13:50:44.354Z,25.74
2022-09-07T13:53:46.194Z,25.73
2022-09-07T13:56:52.202Z,25.65
2022-09-07T13:59:41.677Z,25.54
2022-09-07T14:02:33.390Z,25.43
2022-09-07T14:05:22.312Z,25.35
2022-09-07T14:08:29.493Z,25.39
2022-09-07T14:11:39.226Z,25.61
2022-09-07T14:14:29.354Z,25.63
2022-09-07T14:17:18.993Z,25.74
2022-09-07T14:20:07.057Z,25.78
2022-09-07T14:22:54.316Z,25.65
2022-09-07T14:28:51.821Z,25.73
2022-09-07T14:31:39.386Z,25.46
2022-09-07T14:34:37.406Z,25.47
2022-09-07T14:37:24.745Z,25.41
2022-09-07T14:40:32.228Z,25.24
2022-09-07T14:43:26.602Z,25.20
2022-09-07T14:46:18.327Z,25.19
2022-09-07T14:49:16.345Z,25.14
2022-09-07T14:52:03.709Z,25.16
2022-09-07T14:54:52.672Z,25.23
2022-09-07T14:57:39.884Z,25.30
2022-09-07T15:00:31.861Z,25.34
2022-09-07T15:03:50.495Z,25.36
2022-09-07T15:09:48.695Z,25.52
2022-09-07T15:12:41.473Z,25.58
2022-09-07T15:15:41.077Z,25.66
2022-09-07T15:18:46.233Z,25.68
2022-09-07T15:21:36.524Z,25.67
2022-09-07T15:24:23.755Z,25.60
2022-09-07T15:27:24.573Z,25.52
2022-09-07T15:30:11.968Z,25.49
2022-09-07T15:32:59.785Z,25.42
2022-09-07T15:35:52.047Z,25.31
2022-09-07T15:41:47.105Z,25.44
2022-09-07T15:44:34.360Z,25.43
2022-09-07T15:50:28.714Z,25.50
2022-09-07T15:56:24.137Z,25.41
2022-09-07T15:59:11.910Z,25.33
2022-09-07T16:01:59.453Z,25.27
2022-09-07T16:04:46.907Z,25.25
2022-09-07T16:10:41.507Z,25.18
2022-09-07T16:13:31.368Z,25.18
2022-09-07T16:16:19.137Z,25.16
2022-09-07T16:19:07.611Z,25.12
2022-09-07T16:21:57.660Z,25.06
2022-09-07T16:24:44.958Z,25.02
2022-09-07T16:27:33.705Z,24.99
2022-09-07T16:30:22.189Z,24.99
2022-09-07T16:33:09.612Z,24.94
2022-09-07T16:36:01.409Z,24.93
2022-09-07T16:38:48.958Z,24.88
2022-09-07T16:41:36.219Z,24.92
2022-09-07T16:44:23.551Z,24.92
2022-09-07T16:47:12.613Z,24.97
2022-09-07T16:49:59.841Z,24.98
2022-09-07T16:52:47.187Z,24.97
2022-09-07T16:55:34.450Z,24.92
2022-09-07T16:58:37.786Z,24.90
2022-09-07T17:01:31.361Z,24.90
2022-09-07T17:04:18.932Z,24.87
2022-09-07T17:07:06.189Z,24.88
2022-09-07T17:09:54.165Z,24.86
2022-09-07T17:12:41.392Z,24.75
2022-09-07T17:15:28.629Z,24.68
2022-09-07T17:18:16.273Z,24.59
2022-09-07T17:21:03.982Z,24.59
2022-09-07T17:23:55.567Z,24.54
2022-09-07T17:26:43.196Z,24.52
2022-09-07T17:29:32.972Z,24.47
2022-09-07T17:32:24.497Z,24.44
2022-09-07T17:35:12.516Z,24.33
2022-09-07T17:38:01.344Z,24.24
2022-09-07T17:40:48.629Z,24.17
2022-09-07T17:43:43.635Z,24.13
2022-09-07T17:46:32.710Z,24.02
2022-09-07T17:49:20.002Z,23.97
2022-09-07T17:52:07.288Z,23.92
2022-09-07T17:54:55.385Z,23.85
2022-09-07T17:57:42.624Z,23.79
2022-09-07T18:00:29.948Z,23.72
2022-09-07T18:03:17.224Z,23.65
2022-09-07T18:06:05.055Z,23.53
2022-09-07T18:08:52.379Z,23.46
2022-09-07T18:11:49.808Z,23.41
2022-09-07T18:14:37.510Z,23.34
2022-09-07T18:17:24.760Z,23.27
2022-09-07T18:20:12.029Z,23.18
2022-09-07T18:22:59.611Z,23.13
2022-09-07T18:25:56.788Z,23.03
2022-09-07T18:31:51.522Z,22.86
2022-09-07T18:34:40.561Z,22.84
2022-09-07T18:37:28.326Z,22.77
2022-09-07T18:40:21.600Z,22.74
2022-09-07T18:43:09.544Z,22.72
2022-09-07T18:46:05.403Z,22.68
2022-09-07T18:48:54.034Z,22.69
2022-09-07T18:54:48.328Z,22.55
2022-09-07T18:57:36.525Z,22.55
2022-09-07T19:00:24.083Z,22.52
2022-09-07T19:03:11.632Z,22.46
2022-09-07T19:06:00.511Z,22.32
2022-09-07T19:08:48.339Z,22.33
2022-09-07T19:11:35.776Z,22.33
2022-09-07T19:14:23.106Z,22.25
2022-09-07T19:17:14.056Z,22.23
2022-09-07T19:20:03.576Z,22.24
2022-09-07T19:22:51.108Z,22.22
2022-09-07T19:25:41.995Z,22.15
2022-09-07T19:28:29.639Z,22.15
2022-09-07T19:31:16.994Z,22.10
2022-09-07T19:34:04.741Z,22.07
2022-09-07T19:36:51.962Z,22.04
2022-09-07T19:39:39.693Z,21.99
2022-09-07T19:42:27.589Z,21.86
2022-09-07T19:45:15.679Z,21.86
2022-09-07T19:48:02.907Z,21.85
2022-09-07T19:50:50.790Z,21.79
2022-09-07T19:53:43.525Z,21.68
2022-09-07T19:56:30.818Z,21.70
2022-09-07T19:59:19.629Z,21.63
2022-09-07T20:02:07.059Z,21.60
2022-09-07T20:04:54.517Z,21.60
2022-09-07T20:07:41.735Z,21.40
2022-09-07T20:10:31.233Z,21.35
2022-09-07T20:13:19.112Z,21.35
2022-09-07T20:16:10.484Z,21.39
2022-09-07T20:18:59.477Z,21.40
2022-09-07T20:21:48.019Z,21.21
2022-09-07T20:24:35.355Z,21.04
2022-09-07T20:27:22.556Z,21.09
2022-09-07T20:30:10.425Z,21.07
2022-09-07T20:32:58.293Z,21.09
2022-09-07T20:35:47.566Z,21.08
2022-09-07T20:38:43.882Z,21.11
2022-09-07T20:41:33.648Z,21.13
2022-09-07T20:44:20.864Z,21.17
2022-09-07T20:47:08.110Z,21.04
2022-09-07T20:49:55.373Z,21.03
2022-09-07T20:52:42.597Z,20.98
2022-09-07T20:55:29.975Z,20.99
2022-09-07T20:58:17.710Z,20.97
2022-09-07T21:01:05.563Z,20.88
2022-09-07T21:03:55.671Z,20.90
2022-09-07T21:06:42.866Z,20.87
2022-09-07T21:09:30.093Z,20.73
2022-09-07T21:12:17.295Z,20.78
2022-09-07T21:15:04.904Z,20.70
2022-09-07T21:17:52.149Z,20.53
2022-09-07T21:20:39.378Z,20.65
2022-09-07T21:23:26.832Z,20.60
2022-09-07T21:26:14.381Z,20.60
2022-09-07T21:29:03.745Z,20.60
2022-09-07T21:31:53.387Z,20.53
2022-09-07T21:34:40.665Z,20.48
2022-09-07T21:37:27.898Z,20.47
2022-09-07T21:40:15.201Z,20.31
2022-09-07T21:43:02.652Z,20.23
2022-09-07T21:45:50.970Z,20.29
2022-09-07T21:48:38.515Z,20.35
2022-09-07T21:51:26.920Z,20.34
2022-09-07T21:54:14.151Z,20.35
2022-09-07T21:57:01.354Z,20.19
2022-09-07T21:59:48.910Z,20.29
2022-09-07T22:02:36.211Z,20.30
2022-09-07T22:05:23.495Z,20.30
2022-09-07T22:08:10.828Z,20.34
2022-09-07T22:11:04.773Z,20.38
2022-09-07T22:14:01.718Z,20.48
2022-09-07T22:16:48.971Z,20.47
2022-09-07T22:19:36.680Z,20.43
2022-09-07T22:22:23.871Z,20.39
2022-09-07T22:25:11.056Z,20.39
2022-09-07T22:27:58.561Z,20.20
2022-09-07T22:30:45.829Z,20.37
2022-09-07T22:33:33.071Z,20.40
2022-09-07T22:36:20.541Z,20.41
2022-09-07T22:39:11.518Z,20.43
2022-09-07T22:41:58.838Z,20.45
2022-09-07T22:44:46.058Z,20.38
2022-09-07T22:47:33.353Z,20.53
2022-09-07T22:50:20.558Z,20.43
2022-09-07T22:53:07.784Z,20.50
2022-09-07T22:55:55.618Z,20.48
2022-09-07T22:58:51.435Z,20.40
2022-09-07T23:01:38.871Z,20.43
2022-09-07T23:04:31.396Z,20.39
2022-09-07T23:07:18.958Z,20.44
2022-09-07T23:10:06.716Z,20.37
2022-09-07T23:12:54.188Z,20.41
2022-09-07T23:15:44.972Z,20.43
2022-09-07T23:18:33.217Z,20.39
2022-09-07T23:21:20.477Z,20.28
2022-09-07T23:24:07.840Z,20.22
2022-09-07T23:26:55.057Z,20.21
2022-09-07T23:29:42.313Z,20.17
2022-09-07T23:32:29.515Z,20.10
2022-09-07T23:35:16.881Z,20.11
2022-09-07T23:38:04.117Z,20.12
2022-09-07T23:40:51.547Z,20.14
2022-09-07T23:43:38.744Z,20.09
2022-09-07T23:46:26.055Z,20.10
2022-09-07T23:49:13.309Z,20.02
2022-09-07T23:52:00.513Z,20.10
2022-09-07T23:54:47.710Z,20.10
2022-09-07T23:57:34.940Z,20.06
